Norfolk Ns (Chambers Fld) Airport
KNGU : now visible

Airfield :











YOU CAN JOIN US ON...

 
LOGIN :

Register | Disclaimer

   EN    FR    IT 

 









Legend :    VFR   Marginal VFR   IFR   Intensive IFR   Very Intensive IFR
Visi :
Ceiling :
>= 8 km
>= 3000ft
5 to 8 km
1000 to 3000 ft
1500m to 5 km
500 to 1000 ft
800 to 1500m
200 to 500 ft
< 800m
< 200 ft
Symbols :   Thunderstorms  Fog  Heavy snow  Heavy precipitations  Wind > 20 kt






- Airport Elevation : 17 ft


KNGU - Norfolk Ns (Chambers Fld)

CURRENT METAR :
  • 150659Z 27011G18KT 10SM CLR 08/02 A2982 RMK AO2 SLP096 T00830022 $

EXPIRED METARs :
  • 150559Z 27009KT 10SM CLR 09/02 A2978 RMK AO2 SLP083 T00890022 10122 20089 51035 $
  • 150459Z 27013G19KT 10SM CLR 09/03 A2975 RMK AO2 SLP073 T00940033 401500094 $

TAF TAF KNGU
Valid from the 15 at 07:00 until the 16 at 07:00 UTC


1507/1607 25008KT 9999 FEW030 FEW250 QNH2978INS
FM151400 26011KT 9999 FEW250 QNH2991INS
FM160100 VRB06KT 9999 FEW250 QNH2997INS
FM160600 VRB06KT 9999 FEW025 SCT060 SCT250 QNH3004INS T08/1511Z T15/1520Z FN00085



MET'MAP, your aeronautical weather chart ! - Copyright ORBIFLY December 2007 - Disclaimer

ORBIFLY MET'MAP TEAM :

Programming & Development : Alexandra Zaïnal
Concept & original design : Baudouin d'Aumeries
Assistance for programming : Marc-Olivier Méhu
Technical & hardware support : Manuel Goepfert

Contact : metmap@orbifly.com




SOURCES & CREDITS :

   NOAA       Earth
Advisory